createdAt,value
2019-03-28T00:01:44.398Z,59.40
2019-03-28T00:04:32.912Z,59.30
2019-03-28T00:07:24.196Z,59.40
2019-03-28T00:10:11.778Z,59.40
2019-03-28T00:13:00.090Z,59.40
2019-03-28T00:15:48.716Z,59.40
2019-03-28T00:18:36.897Z,59.40
2019-03-28T00:21:26.283Z,59.40
2019-03-28T00:24:19.669Z,59.40
2019-03-28T00:27:07.718Z,59.50
2019-03-28T00:29:57.877Z,59.50
2019-03-28T00:32:47.156Z,59.50
2019-03-28T00:35:35.801Z,59.60
2019-03-28T00:38:25.148Z,59.60
2019-03-28T00:41:13.961Z,59.70
2019-03-28T00:44:02.686Z,59.60
2019-03-28T00:46:51.293Z,59.60
2019-03-28T00:49:39.765Z,59.70
2019-03-28T00:52:28.572Z,59.70
2019-03-28T00:55:16.686Z,59.70
2019-03-28T00:58:05.325Z,59.70
2019-03-28T01:00:53.961Z,59.80
2019-03-28T01:03:42.559Z,59.80
2019-03-28T01:06:31.055Z,59.80
2019-03-28T01:09:19.491Z,59.80
2019-03-28T01:12:08.145Z,59.80
2019-03-28T01:14:56.644Z,59.90
2019-03-28T01:17:45.788Z,59.90
2019-03-28T01:20:33.969Z,59.90
2019-03-28T01:23:22.395Z,59.80
2019-03-28T01:26:10.494Z,59.90
2019-03-28T01:28:59.629Z,59.80
2019-03-28T01:31:48.105Z,59.80
2019-03-28T01:34:36.381Z,59.90
2019-03-28T01:37:25.096Z,59.80
2019-03-28T01:40:13.543Z,59.90
2019-03-28T01:43:01.595Z,60.00
2019-03-28T01:45:50.008Z,60.00
2019-03-28T01:48:38.574Z,60.10
2019-03-28T01:51:28.016Z,60.00
2019-03-28T01:54:16.586Z,59.90
2019-03-28T01:57:10.938Z,60.00
2019-03-28T01:59:55.091Z,60.00
2019-03-28T02:02:43.451Z,60.00
2019-03-28T02:05:32.107Z,60.10
2019-03-28T02:08:20.728Z,60.20
2019-03-28T02:11:09.028Z,60.10
2019-03-28T02:13:58.132Z,60.10
2019-03-28T02:16:47.092Z,60.10
2019-03-28T02:19:35.504Z,60.10
2019-03-28T02:22:24.148Z,60.10
2019-03-28T02:25:13.900Z,60.10
2019-03-28T02:28:02.100Z,60.10
2019-03-28T02:30:50.771Z,60.20
2019-03-28T02:33:39.980Z,60.30
2019-03-28T02:36:28.985Z,60.20
2019-03-28T02:39:17.239Z,60.30
2019-03-28T02:42:05.975Z,60.30
2019-03-28T02:44:54.735Z,60.30
2019-03-28T02:47:25.528Z,60.30
2019-03-28T02:49:57.019Z,60.30
2019-03-28T02:52:27.676Z,60.30
2019-03-28T02:54:58.708Z,60.40
2019-03-28T02:57:46.908Z,60.30
2019-03-28T03:00:35.910Z,60.40
2019-03-28T03:03:24.868Z,60.30
2019-03-28T03:06:13.949Z,60.50
2019-03-28T03:09:02.032Z,60.40
2019-03-28T03:11:50.711Z,60.50
2019-03-28T03:14:39.177Z,60.50
2019-03-28T03:17:27.824Z,60.50
2019-03-28T03:20:16.355Z,60.60
2019-03-28T03:23:06.946Z,60.70
2019-03-28T03:25:55.942Z,60.70
2019-03-28T03:28:44.381Z,60.80
2019-03-28T03:31:32.813Z,60.70
2019-03-28T03:34:21.685Z,60.80
2019-03-28T03:37:10.736Z,60.70
2019-03-28T03:39:59.358Z,60.70
2019-03-28T03:42:47.627Z,60.70
2019-03-28T03:45:36.221Z,60.60
2019-03-28T03:48:24.730Z,60.60
2019-03-28T03:51:13.220Z,60.50
2019-03-28T03:54:01.871Z,60.50
2019-03-28T03:56:49.987Z,60.70
2019-03-28T03:59:39.193Z,60.50
2019-03-28T04:02:28.235Z,60.50
2019-03-28T04:05:17.220Z,60.50
2019-03-28T04:08:06.032Z,60.30
2019-03-28T04:10:56.364Z,60.30
2019-03-28T04:13:44.260Z,60.30
2019-03-28T04:16:32.744Z,60.40
2019-03-28T04:19:21.009Z,60.40
2019-03-28T04:22:10.108Z,60.30
2019-03-28T04:24:59.018Z,60.20
2019-03-28T04:27:48.694Z,60.00
2019-03-28T04:30:37.755Z,59.80
2019-03-28T04:33:26.188Z,59.70
2019-03-28T04:36:14.776Z,59.40
2019-03-28T04:39:02.760Z,59.20
2019-03-28T04:41:50.922Z,59.10
2019-03-28T04:44:39.484Z,59.00
2019-03-28T04:47:28.182Z,58.80
2019-03-28T04:50:16.693Z,58.70
2019-03-28T04:53:05.320Z,58.50
2019-03-28T04:55:53.400Z,58.40
2019-03-28T04:58:44.713Z,58.40
2019-03-28T05:01:32.028Z,58.30
2019-03-28T05:04:21.275Z,58.10
2019-03-28T05:07:10.075Z,58.10
2019-03-28T05:09:58.640Z,58.00
2019-03-28T05:12:46.927Z,58.00
2019-03-28T05:15:35.788Z,57.90
2019-03-28T05:18:24.220Z,57.80
2019-03-28T05:21:13.032Z,57.80
2019-03-28T05:24:01.436Z,57.80
2019-03-28T05:26:49.808Z,57.80
2019-03-28T05:29:38.716Z,57.70
2019-03-28T05:32:27.718Z,57.70
2019-03-28T05:35:15.870Z,57.80
2019-03-28T05:38:04.239Z,57.70
2019-03-28T05:40:52.736Z,57.80
2019-03-28T05:43:41.478Z,57.80
2019-03-28T05:46:29.410Z,57.70
2019-03-28T05:49:17.668Z,57.80
2019-03-28T05:52:06.553Z,57.80
2019-03-28T05:54:56.167Z,57.80
2019-03-28T05:57:44.426Z,57.80
2019-03-28T06:00:32.832Z,57.90
2019-03-28T06:03:21.278Z,57.90
2019-03-28T06:06:10.777Z,57.90
2019-03-28T06:08:59.007Z,57.90
2019-03-28T06:11:47.777Z,57.90
2019-03-28T06:14:36.584Z,57.90
2019-03-28T06:17:25.021Z,57.90
2019-03-28T06:20:13.868Z,57.60
2019-03-28T06:23:02.240Z,57.30
2019-03-28T06:25:50.524Z,58.20
2019-03-28T06:28:38.953Z,58.00
2019-03-28T06:31:27.895Z,57.90
2019-03-28T06:34:16.212Z,57.80
2019-03-28T06:37:04.607Z,57.80
2019-03-28T06:39:52.993Z,57.80
2019-03-28T06:42:41.841Z,57.80
2019-03-28T06:45:30.216Z,57.90
2019-03-28T06:48:18.691Z,57.90
2019-03-28T06:51:07.517Z,57.90
2019-03-28T06:53:57.173Z,58.00
2019-03-28T06:56:45.510Z,58.30
2019-03-28T06:59:37.505Z,58.50
2019-03-28T07:02:23.871Z,58.60
2019-03-28T07:05:13.462Z,58.80
2019-03-28T07:08:02.513Z,58.80
2019-03-28T07:10:50.891Z,58.80
2019-03-28T07:13:39.567Z,58.80
2019-03-28T07:16:28.501Z,58.80
2019-03-28T07:19:16.903Z,58.70
2019-03-28T07:22:05.179Z,58.70
2019-03-28T07:24:53.614Z,58.50
2019-03-28T07:27:41.921Z,58.50
2019-03-28T07:30:30.178Z,58.40
2019-03-28T07:33:18.993Z,58.30
2019-03-28T07:36:07.225Z,58.40
2019-03-28T07:38:56.133Z,58.60
2019-03-28T07:41:44.465Z,58.50
2019-03-28T07:44:33.488Z,58.40
2019-03-28T07:47:22.023Z,58.40
2019-03-28T07:50:11.888Z,58.30
2019-03-28T07:53:00.221Z,58.20
2019-03-28T07:55:49.200Z,58.20
2019-03-28T07:58:37.706Z,58.10
2019-03-28T08:01:26.879Z,58.00
2019-03-28T08:04:16.089Z,58.00
2019-03-28T08:07:04.601Z,57.90
2019-03-28T08:09:53.240Z,57.90
2019-03-28T08:12:41.588Z,57.80
2019-03-28T08:15:30.243Z,57.80
2019-03-28T08:18:19.472Z,57.90
2019-03-28T08:21:07.984Z,57.90
2019-03-28T08:23:56.488Z,57.90
2019-03-28T08:26:44.930Z,58.00
2019-03-28T08:29:34.638Z,58.10
2019-03-28T08:32:24.538Z,59.00
2019-03-28T08:35:13.869Z,59.20
2019-03-28T08:38:02.365Z,59.70
2019-03-28T08:40:51.593Z,59.90
2019-03-28T08:43:40.745Z,60.20
2019-03-28T08:46:29.274Z,60.70
2019-03-28T08:49:17.946Z,60.70
2019-03-28T08:52:06.988Z,60.50
2019-03-28T08:54:55.742Z,61.00
2019-03-28T08:57:44.300Z,61.30
2019-03-28T09:00:50.069Z,61.00
2019-03-28T09:03:23.030Z,61.10
2019-03-28T09:06:11.442Z,61.10
2019-03-28T09:08:59.920Z,61.20
2019-03-28T09:11:49.021Z,61.10
2019-03-28T09:14:37.493Z,60.40
2019-03-28T09:17:25.796Z,60.40
2019-03-28T09:20:14.715Z,60.30
2019-03-28T09:23:04.438Z,60.30
2019-03-28T09:25:52.753Z,60.10
2019-03-28T09:28:41.532Z,59.90
2019-03-28T09:31:30.565Z,60.00
2019-03-28T09:34:19.084Z,60.20
2019-03-28T09:36:49.792Z,60.00
2019-03-28T09:39:38.585Z,60.00
2019-03-28T09:42:27.245Z,60.00
2019-03-28T09:45:15.876Z,59.90
2019-03-28T09:48:05.242Z,59.90
2019-03-28T09:50:53.677Z,59.80
2019-03-28T09:53:42.828Z,59.70
2019-03-28T09:56:31.694Z,59.70
2019-03-28T09:59:20.395Z,59.50
2019-03-28T10:02:09.069Z,59.40
2019-03-28T10:04:57.653Z,59.30
2019-03-28T10:07:46.131Z,59.20
2019-03-28T10:10:34.973Z,59.20
2019-03-28T10:13:24.176Z,59.00
2019-03-28T10:16:13.179Z,59.00
2019-03-28T10:19:02.201Z,59.00
2019-03-28T10:21:50.900Z,58.90
2019-03-28T10:24:39.283Z,58.80
2019-03-28T10:27:27.645Z,58.70
2019-03-28T10:30:18.271Z,58.70
2019-03-28T10:33:08.021Z,58.70
2019-03-28T10:35:56.716Z,58.70
2019-03-28T10:38:45.293Z,58.60
2019-03-28T10:41:33.621Z,58.60
2019-03-28T10:44:22.817Z,58.50
2019-03-28T10:47:11.029Z,58.50
2019-03-28T10:50:03.744Z,58.40
2019-03-28T10:52:50.401Z,58.40
2019-03-28T10:55:39.262Z,58.30
2019-03-28T10:58:27.908Z,58.30
2019-03-28T11:01:18.200Z,58.20
2019-03-28T11:04:06.434Z,58.40
2019-03-28T11:06:54.793Z,58.40
2019-03-28T11:09:43.122Z,58.40
2019-03-28T11:12:31.495Z,58.30
2019-03-28T11:15:20.251Z,58.40
2019-03-28T11:18:08.593Z,58.40
2019-03-28T11:20:57.180Z,58.40
2019-03-28T11:23:46.245Z,58.30
2019-03-28T11:26:34.658Z,58.30
2019-03-28T11:29:23.344Z,58.20
2019-03-28T11:32:11.599Z,58.20
2019-03-28T11:35:00.643Z,58.30
2019-03-28T11:37:49.389Z,58.40
2019-03-28T11:40:38.820Z,58.40
2019-03-28T11:43:28.166Z,58.40
2019-03-28T11:46:16.762Z,58.30
2019-03-28T11:48:47.666Z,58.30
2019-03-28T11:51:19.268Z,58.30
2019-03-28T11:53:50.413Z,58.10
2019-03-28T11:56:21.242Z,58.10
2019-03-28T11:58:52.314Z,58.30
2019-03-28T12:01:23.849Z,58.60
2019-03-28T12:03:57.131Z,58.70
2019-03-28T12:06:27.799Z,57.00
2019-03-28T12:08:58.503Z,56.80
2019-03-28T12:11:29.513Z,57.00
2019-03-28T12:14:00.178Z,57.40
2019-03-28T12:16:30.921Z,58.10
2019-03-28T12:19:02.125Z,58.80
2019-03-28T12:21:32.993Z,59.20
2019-03-28T12:24:03.680Z,59.70
2019-03-28T12:26:34.366Z,59.90
2019-03-28T12:29:05.887Z,59.90
2019-03-28T12:31:36.989Z,59.70
2019-03-28T12:34:07.734Z,59.60
2019-03-28T12:36:38.444Z,59.40
2019-03-28T12:39:09.504Z,59.80
2019-03-28T12:41:40.243Z,59.00
2019-03-28T12:44:11.016Z,58.90
2019-03-28T12:46:42.014Z,58.90
2019-03-28T12:49:13.025Z,58.90
2019-03-28T12:51:44.575Z,58.80
2019-03-28T12:54:15.431Z,58.80
2019-03-28T12:56:46.459Z,58.80
2019-03-28T12:59:17.120Z,58.80
2019-03-28T13:01:48.287Z,58.70
2019-03-28T13:04:19.247Z,58.70
2019-03-28T13:06:50.543Z,58.80
2019-03-28T13:09:21.523Z,58.80
2019-03-28T13:11:52.619Z,58.70
2019-03-28T13:14:23.672Z,58.70
2019-03-28T13:16:54.334Z,58.80
2019-03-28T13:19:25.023Z,58.70
2019-03-28T13:21:55.681Z,58.70
2019-03-28T13:24:27.632Z,58.70
2019-03-28T13:26:58.316Z,58.60
2019-03-28T13:29:30.386Z,58.70
2019-03-28T13:32:01.160Z,59.00
2019-03-28T13:34:32.280Z,59.00
2019-03-28T13:37:03.442Z,59.10
2019-03-28T13:39:51.942Z,59.30
2019-03-28T13:42:40.247Z,60.30
2019-03-28T13:45:30.037Z,61.50
2019-03-28T13:48:18.047Z,61.40
2019-03-28T13:51:06.446Z,61.30
2019-03-28T13:53:54.822Z,61.60
2019-03-28T13:56:43.451Z,61.60
2019-03-28T13:59:35.244Z,61.90
2019-03-28T14:02:06.850Z,62.00
2019-03-28T14:04:36.927Z,61.50
2019-03-28T14:07:07.909Z,61.30
2019-03-28T14:09:38.589Z,61.20
2019-03-28T14:12:09.231Z,61.00
2019-03-28T14:14:40.241Z,60.80
2019-03-28T14:17:28.515Z,60.70
2019-03-28T14:20:18.061Z,60.40
2019-03-28T14:23:06.933Z,60.40
2019-03-28T14:25:55.835Z,61.00
2019-03-28T14:28:44.232Z,60.90
2019-03-28T14:31:33.504Z,61.00
2019-03-28T14:34:22.254Z,60.90
2019-03-28T14:37:10.684Z,60.80
2019-03-28T14:39:59.696Z,60.90
2019-03-28T14:42:50.417Z,60.80
2019-03-28T14:45:39.021Z,60.20
2019-03-28T14:48:27.813Z,60.30
2019-03-28T14:51:16.149Z,60.10
2019-03-28T14:54:04.783Z,60.00
2019-03-28T14:56:53.657Z,59.90
2019-03-28T14:59:43.982Z,60.00
2019-03-28T15:02:32.763Z,59.90
2019-03-28T15:05:21.250Z,59.80
2019-03-28T15:08:09.964Z,59.80
2019-03-28T15:10:58.534Z,59.70
2019-03-28T15:13:47.400Z,59.70
2019-03-28T15:16:35.854Z,59.70
2019-03-28T15:19:24.720Z,59.70
2019-03-28T15:22:12.963Z,59.60
2019-03-28T15:25:01.639Z,59.60
2019-03-28T15:27:50.187Z,59.50
2019-03-28T15:30:38.715Z,59.50
2019-03-28T15:33:38.695Z,59.50
2019-03-28T15:36:17.583Z,59.50
2019-03-28T15:39:08.924Z,59.40
2019-03-28T15:41:57.288Z,59.40
2019-03-28T15:44:45.971Z,59.40
2019-03-28T15:47:34.509Z,59.20
2019-03-28T15:50:23.348Z,59.20
2019-03-28T15:53:11.871Z,59.20
2019-03-28T15:56:00.652Z,59.10
2019-03-28T15:58:49.422Z,59.10
2019-03-28T16:01:38.524Z,59.10
2019-03-28T16:04:27.082Z,59.10
2019-03-28T16:07:15.261Z,59.10
2019-03-28T16:09:46.714Z,59.10
2019-03-28T16:12:17.892Z,59.10
2019-03-28T16:14:48.567Z,59.20
2019-03-28T16:17:19.196Z,59.10
2019-03-28T16:19:50.202Z,59.20
2019-03-28T16:22:20.838Z,59.10
2019-03-28T16:24:51.489Z,59.10
2019-03-28T16:27:22.990Z,59.10
2019-03-28T16:29:54.418Z,59.10
2019-03-28T16:32:25.163Z,59.10
2019-03-28T16:34:55.895Z,59.00
2019-03-28T16:37:27.700Z,59.00
2019-03-28T16:40:00.361Z,59.00
2019-03-28T16:42:31.528Z,59.00
2019-03-28T16:45:02.287Z,59.00
2019-03-28T16:47:33.084Z,58.90
2019-03-28T16:50:04.303Z,58.90
2019-03-28T16:53:13.624Z,58.90
2019-03-28T16:55:44.279Z,58.80
2019-03-28T16:58:32.879Z,58.80
2019-03-28T17:01:21.016Z,58.80
2019-03-28T17:04:20.078Z,58.70
2019-03-28T17:07:00.447Z,58.70
2019-03-28T17:09:49.640Z,58.60
2019-03-28T17:12:37.967Z,58.60
2019-03-28T17:15:28.413Z,58.60
2019-03-28T17:18:18.807Z,58.60
2019-03-28T17:21:07.912Z,58.60
2019-03-28T17:23:56.437Z,58.60
2019-03-28T17:26:45.021Z,58.60
2019-03-28T17:29:33.396Z,58.60
2019-03-28T17:32:22.092Z,58.60
2019-03-28T17:35:12.868Z,58.60
2019-03-28T17:38:00.547Z,58.60
2019-03-28T17:40:49.254Z,58.60
2019-03-28T17:43:37.451Z,58.70
2019-03-28T17:46:25.920Z,58.70
2019-03-28T17:49:14.385Z,58.70
2019-03-28T17:52:03.227Z,58.60
2019-03-28T17:54:51.665Z,58.60
2019-03-28T17:57:40.206Z,58.70
2019-03-28T18:00:28.670Z,58.80
2019-03-28T18:03:30.232Z,58.80
2019-03-28T18:06:06.983Z,58.80
2019-03-28T18:08:57.017Z,58.90
2019-03-28T18:11:45.202Z,58.80
2019-03-28T18:14:33.517Z,58.90
2019-03-28T18:17:22.214Z,58.90
2019-03-28T18:20:11.043Z,59.00
2019-03-28T18:22:59.617Z,59.00
2019-03-28T18:25:47.974Z,59.00
2019-03-28T18:28:36.480Z,59.00
2019-03-28T18:31:25.121Z,59.00
2019-03-28T18:34:13.440Z,59.00
2019-03-28T18:37:01.661Z,58.90
2019-03-28T18:39:49.722Z,58.90
2019-03-28T18:42:38.605Z,58.90
2019-03-28T18:45:27.865Z,58.90
2019-03-28T18:48:27.343Z,58.90
2019-03-28T18:51:07.006Z,58.90
2019-03-28T18:53:55.507Z,58.80
2019-03-28T18:56:43.950Z,58.80
2019-03-28T18:59:32.745Z,58.80
2019-03-28T19:02:21.171Z,58.80
2019-03-28T19:05:19.533Z,58.40
2019-03-28T19:08:01.665Z,58.50
2019-03-28T19:10:50.999Z,58.50
2019-03-28T19:13:39.974Z,58.60
2019-03-28T19:16:28.703Z,58.60
2019-03-28T19:19:17.787Z,58.60
2019-03-28T19:22:06.510Z,58.60
2019-03-28T19:24:54.886Z,58.60
2019-03-28T19:27:44.826Z,58.60
2019-03-28T19:30:35.297Z,58.60
2019-03-28T19:33:24.325Z,58.60
2019-03-28T19:36:14.229Z,58.50
2019-03-28T19:39:02.583Z,58.50
2019-03-28T19:41:51.064Z,58.60
2019-03-28T19:44:40.208Z,58.50
2019-03-28T19:47:47.653Z,58.50
2019-03-28T19:50:35.987Z,58.50
2019-03-28T19:56:00.115Z,58.50
2019-03-28T19:58:49.129Z,59.00
2019-03-28T20:01:37.205Z,58.40
2019-03-28T20:04:25.569Z,58.40
2019-03-28T20:07:21.452Z,58.40
2019-03-28T20:10:16.280Z,58.40
2019-03-28T20:12:57.587Z,58.40
2019-03-28T20:15:46.955Z,58.50
2019-03-28T20:18:36.092Z,58.50
2019-03-28T20:21:24.817Z,58.50
2019-03-28T20:24:13.081Z,58.40
2019-03-28T20:27:02.487Z,58.50
2019-03-28T20:29:50.914Z,58.50
2019-03-28T20:32:40.166Z,58.60
2019-03-28T20:35:30.601Z,58.60
2019-03-28T20:38:19.081Z,58.70
2019-03-28T20:41:07.433Z,58.60
2019-03-28T20:43:55.827Z,58.60
2019-03-28T20:46:44.869Z,58.70
2019-03-28T20:49:33.439Z,58.70
2019-03-28T20:52:21.889Z,58.80
2019-03-28T20:55:11.287Z,58.80
2019-03-28T20:57:59.540Z,58.90
2019-03-28T21:00:49.191Z,58.90
2019-03-28T21:03:37.285Z,58.90
2019-03-28T21:06:27.933Z,58.90
2019-03-28T21:09:15.909Z,59.00
2019-03-28T21:12:04.275Z,59.00
2019-03-28T21:14:53.271Z,59.00
2019-03-28T21:17:42.502Z,59.10
2019-03-28T21:20:30.883Z,59.10
2019-03-28T21:23:19.601Z,59.10
2019-03-28T21:26:09.293Z,59.20
2019-03-28T21:28:57.802Z,59.20
2019-03-28T21:31:49.984Z,59.20
2019-03-28T21:34:36.047Z,59.30
2019-03-28T21:37:24.991Z,59.30
2019-03-28T21:40:13.781Z,59.30
2019-03-28T21:43:03.154Z,59.30
2019-03-28T21:45:51.500Z,59.40
2019-03-28T21:48:39.666Z,59.40
2019-03-28T21:51:29.059Z,59.50
2019-03-28T21:54:17.462Z,59.50
2019-03-28T21:57:05.886Z,59.60
2019-03-28T21:59:54.521Z,59.60
2019-03-28T22:02:43.067Z,59.70
2019-03-28T22:05:31.638Z,59.70
2019-03-28T22:08:21.357Z,59.70
2019-03-28T22:11:10.056Z,59.80
2019-03-28T22:13:58.393Z,59.80
2019-03-28T22:16:46.654Z,59.80
2019-03-28T22:19:35.019Z,59.90
2019-03-28T22:22:23.412Z,60.00
2019-03-28T22:25:12.289Z,60.10
2019-03-28T22:28:00.493Z,60.10
2019-03-28T22:30:49.456Z,60.20
2019-03-28T22:33:38.343Z,60.30
2019-03-28T22:36:26.810Z,61.30
2019-03-28T22:39:15.082Z,60.50
2019-03-28T22:42:03.491Z,60.50
2019-03-28T22:44:52.614Z,60.70
2019-03-28T22:47:41.027Z,60.80
2019-03-28T22:50:29.362Z,60.80
2019-03-28T22:53:17.723Z,61.00
2019-03-28T22:56:06.013Z,61.10
2019-03-28T22:58:55.131Z,61.20
2019-03-28T23:01:43.498Z,61.20
2019-03-28T23:04:31.778Z,61.40
2019-03-28T23:07:21.137Z,61.40
2019-03-28T23:10:12.035Z,61.50
2019-03-28T23:13:00.876Z,61.60
2019-03-28T23:15:49.375Z,61.40
2019-03-28T23:18:37.953Z,61.50
2019-03-28T23:21:27.085Z,61.50
2019-03-28T23:24:16.073Z,61.70
2019-03-28T23:27:04.547Z,61.60
2019-03-28T23:29:52.725Z,61.60
2019-03-28T23:32:41.328Z,61.50
2019-03-28T23:35:29.733Z,61.60
2019-03-28T23:38:17.934Z,61.60
2019-03-28T23:41:06.367Z,61.60
2019-03-28T23:43:55.733Z,61.60
2019-03-28T23:46:44.193Z,61.60
2019-03-28T23:49:32.569Z,61.80
2019-03-28T23:52:20.501Z,61.70
2019-03-28T23:55:09.040Z,61.80
2019-03-28T23:57:57.613Z,61.90
